Time;durP1;ratioP1;P1;durP2;ratioP2;P2;SDS_P1;SDS_P2;PMS_P1;PMS_P2;Temp;Humidity;BMP_temperature;BMP_pressure;BME280_temperature;BME280_humidity;BME280_pressure;Samples;Min_cycle;Max_cycle;Signal;HPM_P1;HPM_P2
2021/03/13 00:01:35;;;;;;;1.17;1.00;;;;;;;;;;5053013;28;20451;-76
2021/03/13 00:04:01;;;;;;;2.60;1.23;;;;;;;;;;5052557;28;20232;-77
2021/03/13 00:06:27;;;;;;;1.10;0.82;;;;;;;;;;5051818;28;20239;-76
2021/03/13 00:08:54;;;;;;;1.30;0.70;;;;;;;;;;5033399;28;20202;-78
2021/03/13 00:11:20;;;;;;;1.25;1.15;;;;;;;;;;5038215;28;20284;-77
2021/03/13 00:13:45;;;;;;;1.00;0.80;;;;;;;;;;5048405;28;20651;-77
2021/03/13 00:16:11;;;;;;;0.70;0.50;;;;;;;;;;5052974;28;20193;-77
2021/03/13 00:18:38;;;;;;;1.48;0.80;;;;;;;;;;5052769;28;20439;-76
2021/03/13 00:21:05;;;;;;;0.90;0.65;;;;;;;;;;5052443;28;20244;-75
2021/03/13 00:23:31;;;;;;;0.98;0.60;;;;;;;;;;5052289;28;20297;-76
2021/03/13 00:25:57;;;;;;;0.95;0.70;;;;;;;;;;5052441;28;20193;-76
2021/03/13 00:28:23;;;;;;;1.45;0.70;;;;;;;;;;5051888;28;21815;-76
2021/03/13 00:30:50;;;;;;;0.90;0.90;;;;;;;;;;5052778;28;20190;-77
2021/03/13 00:33:17;;;;;;;1.52;1.00;;;;;;;;;;5052662;28;20529;-76
2021/03/13 00:35:45;;;;;;;2.53;0.90;;;;;;;;;;5051972;28;20233;-77
2021/03/13 00:38:11;;;;;;;1.20;0.90;;;;;;;;;;5051865;28;20289;-76
2021/03/13 00:40:39;;;;;;;2.25;1.02;;;;;;;;;;5052094;28;20224;-77
2021/03/13 00:43:06;;;;;;;1.63;1.00;;;;;;;;;;5051824;28;20198;-77
2021/03/13 00:45:32;;;;;;;1.95;1.13;;;;;;;;;;5051902;28;20204;-78
2021/03/13 00:47:58;;;;;;;1.23;0.98;;;;;;;;;;5051838;28;20276;-77
2021/03/13 00:50:25;;;;;;;1.92;1.02;;;;;;;;;;5052278;28;20189;-76
2021/03/13 00:52:52;;;;;;;8.55;1.48;;;;;;;;;;5052565;28;20189;-77
2021/03/13 00:55:18;;;;;;;1.05;0.70;;;;;;;;;;5053818;28;20636;-77
2021/03/13 00:57:45;;;;;;;1.05;0.77;;;;;;;;;;5056481;28;20262;-75
2021/03/13 01:00:12;;;;;;;1.35;1.00;;;;;;;;;;5056055;28;20217;-77
2021/03/13 01:02:38;;;;;;;2.47;0.90;;;;;;;;;;5056503;28;20709;-76
2021/03/13 01:05:05;;;;;;;1.00;0.67;;;;;;;;;;5056580;28;20268;-76
2021/03/13 01:07:31;;;;;;;0.70;0.60;;;;;;;;;;5056996;28;20471;-76
2021/03/13 01:09:58;;;;;;;1.20;0.75;;;;;;;;;;5056777;28;20193;-75
2021/03/13 01:12:24;;;;;;;0.70;0.60;;;;;;;;;;5056605;28;20201;-77
2021/03/13 01:14:50;;;;;;;1.35;0.80;;;;;;;;;;5055987;28;20204;-75
2021/03/13 01:17:17;;;;;;;15.30;0.80;;;;;;;;;;5056602;28;20190;-75
2021/03/13 01:19:43;;;;;;;1.05;0.70;;;;;;;;;;5055916;28;20209;-77
2021/03/13 01:22:09;;;;;;;0.90;0.70;;;;;;;;;;5056449;28;20284;-76
2021/03/13 01:24:40;;;;;;;0.80;0.60;;;;;;;;;;5056535;28;20201;-78
2021/03/13 01:27:07;;;;;;;1.60;0.60;;;;;;;;;;5056565;28;20212;-77
2021/03/13 01:29:33;;;;;;;1.40;0.70;;;;;;;;;;5055736;28;20229;-77
2021/03/13 01:32:03;;;;;;;0.80;0.60;;;;;;;;;;5055568;28;20545;-76
2021/03/13 01:34:29;;;;;;;0.80;0.60;;;;;;;;;;5055639;28;20201;-76
2021/03/13 01:36:55;;;;;;;1.30;0.70;;;;;;;;;;5055822;28;20251;-76
2021/03/13 01:39:21;;;;;;;0.90;0.68;;;;;;;;;;5055522;28;20292;-77
2021/03/13 01:41:47;;;;;;;0.90;0.73;;;;;;;;;;5055269;28;20201;-76
2021/03/13 01:44:15;;;;;;;0.90;0.80;;;;;;;;;;5056680;28;20394;-76
2021/03/13 01:46:41;;;;;;;0.80;0.70;;;;;;;;;;5056507;28;20452;-77
2021/03/13 01:49:10;;;;;;;1.35;0.80;;;;;;;;;;5056391;28;20193;-77
2021/03/13 01:51:36;;;;;;;1.65;0.90;;;;;;;;;;5056245;28;20270;-77
2021/03/13 01:54:02;;;;;;;1.67;0.80;;;;;;;;;;5056537;28;20213;-77
2021/03/13 01:56:29;;;;;;;1.75;1.10;;;;;;;;;;5055633;28;20420;-76
2021/03/13 01:58:55;;;;;;;1.83;0.98;;;;;;;;;;5055400;28;20664;-75
2021/03/13 02:01:22;;;;;;;2.70;1.00;;;;;;;;;;5055934;28;20189;-76
2021/03/13 02:03:48;;;;;;;1.20;1.10;;;;;;;;;;5054963;28;20527;-75
2021/03/13 02:06:14;;;;;;;1.45;1.25;;;;;;;;;;5054746;28;20201;-76
2021/03/13 02:08:44;;;;;;;1.57;0.80;;;;;;;;;;5055347;28;20280;-77
2021/03/13 02:11:13;;;;;;;0.90;0.70;;;;;;;;;;5054816;28;20489;-78
2021/03/13 02:13:43;;;;;;;2.05;0.80;;;;;;;;;;5054022;28;20194;-77
2021/03/13 02:16:13;;;;;;;1.10;0.90;;;;;;;;;;5055351;28;20663;-76
2021/03/13 02:18:45;;;;;;;7.43;1.40;;;;;;;;;;5055875;28;20236;-76
2021/03/13 02:21:16;;;;;;;5.95;0.70;;;;;;;;;;5054968;28;20205;-76
2021/03/13 02:24:00;;;;;;;1.35;0.80;;;;;;;;;;5055067;28;20193;-77
2021/03/13 02:26:28;;;;;;;0.90;0.80;;;;;;;;;;5044654;28;20201;-76
2021/03/13 02:29:00;;;;;;;0.80;0.55;;;;;;;;;;5054759;28;20215;-77
2021/03/13 02:31:27;;;;;;;2.38;1.05;;;;;;;;;;5054542;28;20182;-76
2021/03/13 02:33:54;;;;;;;1.17;0.70;;;;;;;;;;5054507;28;20201;-76
2021/03/13 02:36:21;;;;;;;1.65;0.70;;;;;;;;;;5054331;28;20265;-77
2021/03/13 02:38:48;;;;;;;2.08;0.80;;;;;;;;;;5054601;28;20530;-76
2021/03/13 02:41:17;;;;;;;2.60;0.75;;;;;;;;;;5054281;28;20671;-76
2021/03/13 02:43:45;;;;;;;1.00;0.65;;;;;;;;;;5054293;28;20250;-77
2021/03/13 02:46:12;;;;;;;0.80;0.60;;;;;;;;;;5053905;28;20212;-76
2021/03/13 02:48:39;;;;;;;1.30;0.80;;;;;;;;;;5043870;28;20289;-75
2021/03/13 02:51:06;;;;;;;2.22;0.90;;;;;;;;;;5054244;28;20202;-76
2021/03/13 02:53:33;;;;;;;0.90;0.77;;;;;;;;;;5053750;28;20205;-77
2021/03/13 02:55:59;;;;;;;1.42;0.80;;;;;;;;;;5054158;28;20201;-77
2021/03/13 02:58:26;;;;;;;1.20;0.75;;;;;;;;;;5054204;28;20197;-76
2021/03/13 03:00:52;;;;;;;2.28;1.08;;;;;;;;;;5053331;28;20217;-77
2021/03/13 03:03:20;;;;;;;0.80;0.60;;;;;;;;;;5053579;28;20196;-77
2021/03/13 03:05:47;;;;;;;1.33;1.20;;;;;;;;;;5053829;28;20201;-76
2021/03/13 03:08:13;;;;;;;4.20;1.30;;;;;;;;;;5054221;28;20248;-76
2021/03/13 03:10:40;;;;;;;0.90;0.75;;;;;;;;;;5053334;28;20654;-78
2021/03/13 03:13:07;;;;;;;1.00;0.82;;;;;;;;;;5053539;28;20193;-75
2021/03/13 03:15:34;;;;;;;1.95;1.48;;;;;;;;;;5053379;28;20197;-77
2021/03/13 03:18:01;;;;;;;3.67;1.55;;;;;;;;;;5052846;28;20540;-77
2021/03/13 03:20:27;;;;;;;1.60;1.25;;;;;;;;;;5052725;28;20217;-77
2021/03/13 03:22:55;;;;;;;5.38;2.08;;;;;;;;;;5052999;28;20221;-78
2021/03/13 03:25:21;;;;;;;7.93;2.10;;;;;;;;;;5053281;28;20537;-79
2021/03/13 03:27:59;;;;;;;4.07;1.98;;;;;;;;;;5052923;28;20205;-79
2021/03/13 03:30:27;;;;;;;3.88;2.17;;;;;;;;;;5053854;28;21041;-77
2021/03/13 03:32:53;;;;;;;3.00;2.15;;;;;;;;;;5053870;28;20248;-75
2021/03/13 03:35:20;;;;;;;3.40;3.10;;;;;;;;;;5053444;28;20325;-77
2021/03/13 03:37:46;;;;;;;7.82;1.92;;;;;;;;;;5053682;28;20197;-76
2021/03/13 03:40:14;;;;;;;3.75;2.80;;;;;;;;;;5053562;28;20213;-77
2021/03/13 03:42:43;;;;;;;5.90;3.33;;;;;;;;;;5054415;28;20947;-77
2021/03/13 03:45:10;;;;;;;11.77;3.72;;;;;;;;;;5054224;28;20273;-78
2021/03/13 03:47:37;;;;;;;4.55;2.72;;;;;;;;;;5053647;28;20670;-78
2021/03/13 03:50:04;;;;;;;7.00;3.20;;;;;;;;;;5053584;28;20188;-77
2021/03/13 03:52:31;;;;;;;3.03;2.08;;;;;;;;;;5052555;28;20202;-78
2021/03/13 03:54:57;;;;;;;2.75;1.67;;;;;;;;;;5052948;28;20205;-77
2021/03/13 03:57:25;;;;;;;3.63;1.33;;;;;;;;;;5053601;28;20190;-78
2021/03/13 03:59:52;;;;;;;1.75;1.00;;;;;;;;;;5052438;28;20312;-78
2021/03/13 04:02:21;;;;;;;0.90;0.70;;;;;;;;;;5052704;28;20644;-77
2021/03/13 04:04:47;;;;;;;2.45;1.20;;;;;;;;;;5052957;28;20623;-77
2021/03/13 04:07:13;;;;;;;7.70;1.77;;;;;;;;;;5052711;28;20203;-78
2021/03/13 04:09:40;;;;;;;2.33;1.23;;;;;;;;;;5052201;28;20199;-76
2021/03/13 04:12:08;;;;;;;1.55;1.30;;;;;;;;;;5051588;28;20202;-77
2021/03/13 04:14:35;;;;;;;3.67;1.35;;;;;;;;;;5052302;28;20279;-78
2021/03/13 04:17:02;;;;;;;2.97;1.60;;;;;;;;;;5052549;28;20272;-77
2021/03/13 04:19:28;;;;;;;1.27;1.02;;;;;;;;;;5050138;28;20221;-78
2021/03/13 04:21:55;;;;;;;3.25;1.10;;;;;;;;;;5052255;28;20190;-77
2021/03/13 04:24:21;;;;;;;2.83;1.05;;;;;;;;;;5052353;28;20228;-77
2021/03/13 04:26:47;;;;;;;2.42;1.20;;;;;;;;;;5052997;28;20206;-77
2021/03/13 04:29:13;;;;;;;1.67;1.08;;;;;;;;;;5052828;28;20181;-79
2021/03/13 04:31:41;;;;;;;4.25;1.58;;;;;;;;;;5053666;28;20201;-79
2021/03/13 04:34:08;;;;;;;3.13;0.90;;;;;;;;;;5053194;28;20204;-78
2021/03/13 04:36:34;;;;;;;1.88;1.50;;;;;;;;;;5052236;28;20229;-76
2021/03/13 04:39:02;;;;;;;17.00;1.50;;;;;;;;;;5052849;28;20205;-77
2021/03/13 04:41:28;;;;;;;1.60;1.40;;;;;;;;;;5052860;28;20483;-79
2021/03/13 04:43:54;;;;;;;1.33;0.90;;;;;;;;;;5051816;28;20194;-77
2021/03/13 04:46:21;;;;;;;1.65;0.80;;;;;;;;;;5052626;28;20295;-76
2021/03/13 04:48:48;;;;;;;4.93;1.13;;;;;;;;;;5051608;28;20192;-77
2021/03/13 04:51:17;;;;;;;7.53;1.85;;;;;;;;;;5052191;28;20189;-76
2021/03/13 04:53:43;;;;;;;3.10;1.15;;;;;;;;;;5052361;28;20197;-78
2021/03/13 04:56:10;;;;;;;2.55;1.00;;;;;;;;;;5052368;28;20606;-78
2021/03/13 04:58:36;;;;;;;0.82;0.80;;;;;;;;;;5052268;28;20671;-77
2021/03/13 05:01:02;;;;;;;3.85;1.17;;;;;;;;;;5051837;28;20693;-75
2021/03/13 05:03:28;;;;;;;1.00;0.90;;;;;;;;;;5051732;28;20284;-77
2021/03/13 05:05:55;;;;;;;4.50;0.70;;;;;;;;;;5052016;28;20272;-77
2021/03/13 05:08:21;;;;;;;1.20;1.08;;;;;;;;;;5051626;28;20505;-77
2021/03/13 05:10:46;;;;;;;0.93;0.83;;;;;;;;;;5052089;28;20181;-78
2021/03/13 05:13:12;;;;;;;1.27;1.17;;;;;;;;;;5051957;28;20806;-77
2021/03/13 05:15:38;;;;;;;2.20;1.67;;;;;;;;;;5051999;28;20476;-78
2021/03/13 05:18:04;;;;;;;2.35;0.88;;;;;;;;;;5051397;28;20439;-77
2021/03/13 05:20:30;;;;;;;1.33;1.23;;;;;;;;;;5051338;28;20208;-78
2021/03/13 05:22:58;;;;;;;1.98;0.95;;;;;;;;;;5051732;28;20197;-77
2021/03/13 05:25:24;;;;;;;2.45;1.27;;;;;;;;;;5051627;28;20256;-78
2021/03/13 05:27:50;;;;;;;2.90;1.70;;;;;;;;;;5051753;28;20240;-77
2021/03/13 05:30:17;;;;;;;4.00;1.10;;;;;;;;;;5051869;28;20686;-79
2021/03/13 05:32:43;;;;;;;1.52;1.00;;;;;;;;;;5051987;28;20456;-78
2021/03/13 05:35:09;;;;;;;1.30;1.10;;;;;;;;;;5051888;28;20248;-78
2021/03/13 05:37:35;;;;;;;1.30;1.20;;;;;;;;;;5051701;28;20440;-76
2021/03/13 05:40:02;;;;;;;3.45;1.15;;;;;;;;;;5052077;28;20205;-77
2021/03/13 05:42:29;;;;;;;1.50;0.90;;;;;;;;;;5054353;28;20225;-78
2021/03/13 05:44:55;;;;;;;1.00;0.90;;;;;;;;;;5055822;28;20237;-78
2021/03/13 05:47:22;;;;;;;1.13;0.90;;;;;;;;;;5055808;28;20608;-76
2021/03/13 05:49:54;;;;;;;1.88;1.02;;;;;;;;;;5055050;28;20659;-75
2021/03/13 05:52:21;;;;;;;1.20;1.10;;;;;;;;;;5055521;28;20634;-77
2021/03/13 05:54:50;;;;;;;6.97;1.27;;;;;;;;;;5054720;28;20209;-77
2021/03/13 05:57:17;;;;;;;0.80;0.80;;;;;;;;;;5054241;28;20276;-77
2021/03/13 05:59:43;;;;;;;3.20;0.90;;;;;;;;;;5054989;28;20718;-77
2021/03/13 06:02:09;;;;;;;2.67;0.90;;;;;;;;;;5054176;28;20204;-77
2021/03/13 06:04:36;;;;;;;2.90;1.15;;;;;;;;;;5055136;28;20236;-75
2021/03/13 06:07:02;;;;;;;2.60;1.30;;;;;;;;;;5054501;28;20209;-77
2021/03/13 06:09:28;;;;;;;1.25;0.80;;;;;;;;;;5051859;28;20216;-74
2021/03/13 06:11:54;;;;;;;1.23;1.10;;;;;;;;;;5051931;28;20181;-75
2021/03/13 06:14:21;;;;;;;2.25;1.50;;;;;;;;;;5054804;28;20209;-75
2021/03/13 06:16:47;;;;;;;3.97;1.10;;;;;;;;;;5054742;28;20272;-78
2021/03/13 06:19:13;;;;;;;2.33;1.05;;;;;;;;;;5054094;28;20686;-76
2021/03/13 06:21:40;;;;;;;1.35;1.23;;;;;;;;;;5053776;28;20220;-77
2021/03/13 06:24:13;;;;;;;1.50;1.40;;;;;;;;;;5054024;28;20570;-78
2021/03/13 06:26:49;;;;;;;3.60;2.45;;;;;;;;;;5054023;28;20185;-76
2021/03/13 06:29:16;;;;;;;4.53;1.38;;;;;;;;;;5054190;28;20220;-76
2021/03/13 06:31:42;;;;;;;2.17;1.35;;;;;;;;;;5054789;28;20197;-77
2021/03/13 06:34:24;;;;;;;2.80;1.05;;;;;;;;;;5054179;28;20221;-77
2021/03/13 06:36:50;;;;;;;1.15;0.90;;;;;;;;;;5053942;28;20233;-77
2021/03/13 06:39:16;;;;;;;4.20;1.20;;;;;;;;;;5054260;28;20191;-78
2021/03/13 06:41:42;;;;;;;2.10;1.10;;;;;;;;;;5053809;28;20501;-77
2021/03/13 06:44:14;;;;;;;1.10;1.00;;;;;;;;;;5053851;28;20208;-78
2021/03/13 06:46:40;;;;;;;3.15;1.65;;;;;;;;;;5054523;28;20503;-77
2021/03/13 06:49:07;;;;;;;1.67;0.97;;;;;;;;;;5053568;28;20211;-77
2021/03/13 06:51:33;;;;;;;1.02;0.93;;;;;;;;;;5054480;28;20474;-76
2021/03/13 06:54:10;;;;;;;8.02;1.50;;;;;;;;;;5052469;28;20194;-79
2021/03/13 06:56:40;;;;;;;1.58;0.80;;;;;;;;;;5054301;28;20224;-78
2021/03/13 06:59:22;;;;;;;2.58;1.08;;;;;;;;;;5053738;28;20193;-78
2021/03/13 07:01:57;;;;;;;2.78;1.00;;;;;;;;;;5053735;28;20242;-77
2021/03/13 07:04:29;;;;;;;4.30;0.82;;;;;;;;;;5053704;28;20204;-77
2021/03/13 07:06:55;;;;;;;3.58;0.77;;;;;;;;;;5054157;28;20201;-78
2021/03/13 07:09:36;;;;;;;2.08;0.73;;;;;;;;;;5053718;28;20198;-77
2021/03/13 07:12:01;;;;;;;0.88;0.80;;;;;;;;;;5053677;28;20670;-77
2021/03/13 07:14:27;;;;;;;1.75;1.10;;;;;;;;;;5053525;28;20197;-77
2021/03/13 07:16:54;;;;;;;2.53;1.30;;;;;;;;;;5053977;28;20571;-77
2021/03/13 07:19:20;;;;;;;2.10;1.00;;;;;;;;;;5054662;28;21296;-77
2021/03/13 07:21:47;;;;;;;0.90;0.73;;;;;;;;;;5054462;28;20250;-76
2021/03/13 07:24:13;;;;;;;2.00;1.70;;;;;;;;;;5054557;28;20244;-76
2021/03/13 07:26:40;;;;;;;4.75;1.10;;;;;;;;;;5053682;28;20206;-77
2021/03/13 07:29:07;;;;;;;3.05;1.10;;;;;;;;;;5053791;28;20573;-78
2021/03/13 07:31:34;;;;;;;2.97;0.80;;;;;;;;;;5053799;28;20631;-77
2021/03/13 07:34:01;;;;;;;7.38;0.95;;;;;;;;;;5053758;28;20209;-77
2021/03/13 07:36:28;;;;;;;1.42;0.80;;;;;;;;;;5052682;28;20278;-78
2021/03/13 07:38:57;;;;;;;1.15;1.05;;;;;;;;;;5052771;28;20221;-76
2021/03/13 07:41:24;;;;;;;1.83;0.80;;;;;;;;;;5052663;28;20343;-77
2021/03/13 07:43:50;;;;;;;1.38;0.80;;;;;;;;;;5052899;28;20182;-77
2021/03/13 07:46:17;;;;;;;3.08;1.10;;;;;;;;;;5053033;28;20205;-77
2021/03/13 07:48:44;;;;;;;2.20;0.80;;;;;;;;;;5053446;28;20940;-77
2021/03/13 07:51:10;;;;;;;1.02;1.00;;;;;;;;;;5053056;28;20198;-77
2021/03/13 07:53:37;;;;;;;1.30;0.90;;;;;;;;;;5052490;28;20192;-76
2021/03/13 07:56:05;;;;;;;1.58;1.30;;;;;;;;;;5052753;28;20776;-78
2021/03/13 07:58:31;;;;;;;1.10;0.82;;;;;;;;;;5052543;28;20652;-76
2021/03/13 08:00:59;;;;;;;2.15;1.40;;;;;;;;;;5052412;28;20658;-79
2021/03/13 08:03:40;;;;;;;1.40;0.90;;;;;;;;;;5052889;28;20201;-77
2021/03/13 08:06:06;;;;;;;1.00;0.80;;;;;;;;;;5052808;28;20274;-78
2021/03/13 08:08:36;;;;;;;4.22;0.95;;;;;;;;;;5052595;28;20236;-77
2021/03/13 08:11:02;;;;;;;1.00;0.90;;;;;;;;;;5053073;28;20205;-76
2021/03/13 08:13:47;;;;;;;1.50;1.10;;;;;;;;;;5052315;28;20682;-78
2021/03/13 08:16:18;;;;;;;1.35;1.00;;;;;;;;;;5052744;28;20201;-75
2021/03/13 08:18:44;;;;;;;3.53;1.23;;;;;;;;;;5053011;28;20687;-76
2021/03/13 08:21:29;;;;;;;1.65;0.80;;;;;;;;;;5051941;28;20296;-78
2021/03/13 08:23:56;;;;;;;1.40;0.85;;;;;;;;;;5052758;28;20207;-77
2021/03/13 08:26:22;;;;;;;1.98;1.00;;;;;;;;;;5052632;28;20253;-76
2021/03/13 08:28:56;;;;;;;2.28;1.25;;;;;;;;;;5052032;28;20244;-77
2021/03/13 08:31:36;;;;;;;2.65;1.00;;;;;;;;;;5051982;28;20201;-79
2021/03/13 08:34:17;;;;;;;1.65;1.00;;;;;;;;;;5052975;28;20208;-77
2021/03/13 08:36:45;;;;;;;1.75;0.80;;;;;;;;;;5052070;28;20234;-77
2021/03/13 08:39:13;;;;;;;2.65;1.45;;;;;;;;;;5052010;28;20207;-77
2021/03/13 08:41:46;;;;;;;1.00;0.70;;;;;;;;;;5051784;28;20577;-77
2021/03/13 08:44:13;;;;;;;1.08;0.90;;;;;;;;;;5051988;28;20560;-78
2021/03/13 08:46:44;;;;;;;1.27;1.00;;;;;;;;;;5052491;28;20201;-77
2021/03/13 08:49:10;;;;;;;1.10;0.98;;;;;;;;;;5052415;28;20235;-79
2021/03/13 08:51:36;;;;;;;1.02;0.93;;;;;;;;;;5052293;28;20225;-78
2021/03/13 08:54:02;;;;;;;3.17;1.23;;;;;;;;;;5052070;28;20205;-77
2021/03/13 08:56:36;;;;;;;5.25;1.10;;;;;;;;;;5051974;28;20729;-77
2021/03/13 08:59:08;;;;;;;1.13;1.02;;;;;;;;;;5051806;28;20530;-78
2021/03/13 09:01:34;;;;;;;1.55;0.98;;;;;;;;;;5051868;28;20238;-77
2021/03/13 09:04:01;;;;;;;1.25;0.95;;;;;;;;;;5052067;28;20309;-77
2021/03/13 09:06:27;;;;;;;1.13;0.73;;;;;;;;;;5051668;28;20193;-78
2021/03/13 09:09:07;;;;;;;1.30;0.90;;;;;;;;;;5052316;28;20284;-76
2021/03/13 09:11:33;;;;;;;1.08;0.98;;;;;;;;;;5051975;28;20894;-78
2021/03/13 09:13:59;;;;;;;1.13;0.85;;;;;;;;;;5052147;28;20542;-77
2021/03/13 09:16:25;;;;;;;1.20;1.10;;;;;;;;;;5052785;28;20291;-78
2021/03/13 09:18:52;;;;;;;0.90;0.70;;;;;;;;;;5055503;28;20719;-77
2021/03/13 09:21:38;;;;;;;1.00;0.70;;;;;;;;;;5055900;28;20467;-77
2021/03/13 09:24:04;;;;;;;0.88;0.77;;;;;;;;;;5055983;28;20598;-76
2021/03/13 09:26:30;;;;;;;1.50;1.05;;;;;;;;;;5055867;28;20285;-76
2021/03/13 09:28:56;;;;;;;2.35;0.98;;;;;;;;;;5055235;28;20253;-78
2021/03/13 09:31:22;;;;;;;1.10;0.80;;;;;;;;;;5054986;28;20198;-77
2021/03/13 09:33:49;;;;;;;1.63;1.02;;;;;;;;;;5055396;28;20545;-78
2021/03/13 09:36:15;;;;;;;1.98;0.90;;;;;;;;;;5054886;28;20279;-78
2021/03/13 09:38:54;;;;;;;1.38;0.80;;;;;;;;;;5055403;28;20205;-78
2021/03/13 09:41:20;;;;;;;1.88;1.00;;;;;;;;;;5055453;28;20677;-77
2021/03/13 09:43:46;;;;;;;1.27;0.80;;;;;;;;;;5055211;28;20190;-77
2021/03/13 09:46:16;;;;;;;0.90;0.80;;;;;;;;;;5055258;28;20556;-77
2021/03/13 09:48:42;;;;;;;8.10;1.00;;;;;;;;;;5055203;28;20208;-78
2021/03/13 09:51:08;;;;;;;1.38;0.77;;;;;;;;;;5055255;28;20197;-76
2021/03/13 09:53:34;;;;;;;1.95;0.98;;;;;;;;;;5054647;28;20185;-78
2021/03/13 09:56:02;;;;;;;1.02;0.80;;;;;;;;;;5055049;28;20240;-78
2021/03/13 09:58:27;;;;;;;1.38;1.00;;;;;;;;;;5054788;28;20205;-77
2021/03/13 10:00:53;;;;;;;1.50;0.90;;;;;;;;;;5055092;28;20212;-77
2021/03/13 10:03:20;;;;;;;0.90;0.60;;;;;;;;;;5054724;28;20427;-76
2021/03/13 10:05:50;;;;;;;1.10;0.85;;;;;;;;;;5054573;28;20206;-77
2021/03/13 10:08:17;;;;;;;2.55;1.80;;;;;;;;;;5054620;28;20654;-77
2021/03/13 10:10:43;;;;;;;0.80;0.70;;;;;;;;;;5054398;28;20610;-78
2021/03/13 10:13:12;;;;;;;4.60;1.00;;;;;;;;;;5055037;28;20647;-78
2021/03/13 10:15:39;;;;;;;1.40;1.30;;;;;;;;;;5054434;28;20185;-77
2021/03/13 10:18:06;;;;;;;2.08;0.80;;;;;;;;;;5054167;28;20216;-76
2021/03/13 10:20:33;;;;;;;1.60;0.98;;;;;;;;;;5055147;28;20213;-77
2021/03/13 10:23:04;;;;;;;1.42;1.33;;;;;;;;;;5055788;28;20242;-76
2021/03/13 10:25:30;;;;;;;1.33;0.85;;;;;;;;;;5055744;28;20197;-78
2021/03/13 10:28:02;;;;;;;1.10;0.70;;;;;;;;;;5059052;28;20615;-77
2021/03/13 10:30:29;;;;;;;0.70;0.70;;;;;;;;;;5074572;28;20286;-77
2021/03/13 10:32:55;;;;;;;1.45;0.70;;;;;;;;;;5066476;28;20198;-77
2021/03/13 10:35:26;;;;;;;1.27;0.90;;;;;;;;;;5059201;28;20262;-77
2021/03/13 10:37:53;;;;;;;0.90;0.70;;;;;;;;;;5055405;28;20671;-76
2021/03/13 10:40:30;;;;;;;0.70;0.60;;;;;;;;;;5043024;28;20259;-78
2021/03/13 10:42:56;;;;;;;;;;;;;;;;;;4721060;28;31521;-77
2021/03/13 10:45:21;;;;;;;;;;;;;;;;;;4880866;28;27415;-77
2021/03/13 10:47:47;;;;;;;;;;;;;;;;;;5026311;28;26975;-76
2021/03/13 10:50:13;;;;;;;;;;;;;;;;;;5016663;28;25852;-78
2021/03/13 10:52:40;;;;;;;0.70;0.70;;;;;;;;;;5055448;28;20183;-76
2021/03/13 10:55:07;;;;;;;0.80;0.60;;;;;;;;;;5056173;28;20241;-77
2021/03/13 10:57:33;;;;;;;0.98;0.60;;;;;;;;;;5055787;28;20218;-79
2021/03/13 10:59:59;;;;;;;0.70;0.68;;;;;;;;;;5055101;28;20211;-76
2021/03/13 11:02:25;;;;;;;0.80;0.67;;;;;;;;;;5056464;28;20222;-79
2021/03/13 11:04:51;;;;;;;0.90;0.70;;;;;;;;;;5070172;28;20453;-77
2021/03/13 11:07:17;;;;;;;0.77;0.77;;;;;;;;;;5057246;28;20500;-75
2021/03/13 11:09:46;;;;;;;2.92;1.00;;;;;;;;;;5059184;28;20453;-76
2021/03/13 11:12:12;;;;;;;0.70;0.68;;;;;;;;;;5061751;28;20202;-78
2021/03/13 11:14:38;;;;;;;0.90;0.75;;;;;;;;;;5070547;28;20218;-79
2021/03/13 11:17:05;;;;;;;3.10;0.70;;;;;;;;;;5072077;28;20214;-77
2021/03/13 11:19:30;;;;;;;0.80;0.70;;;;;;;;;;5070012;28;20239;-77
2021/03/13 11:21:58;;;;;;;0.90;0.77;;;;;;;;;;5067808;28;20203;-78
2021/03/13 11:24:24;;;;;;;1.15;0.75;;;;;;;;;;5066068;28;20438;-77
2021/03/13 11:26:51;;;;;;;0.70;0.60;;;;;;;;;;5070876;28;20221;-78
2021/03/13 11:29:17;;;;;;;0.80;0.60;;;;;;;;;;5073418;28;20713;-78
2021/03/13 11:31:44;;;;;;;0.80;0.60;;;;;;;;;;5070485;28;20286;-77
2021/03/13 11:34:10;;;;;;;2.05;0.80;;;;;;;;;;5070017;28;20231;-76
2021/03/13 11:36:36;;;;;;;0.88;0.68;;;;;;;;;;5071173;28;20238;-77
2021/03/13 11:39:06;;;;;;;1.02;0.93;;;;;;;;;;5064866;28;20594;-76
2021/03/13 11:41:33;;;;;;;1.70;0.80;;;;;;;;;;5059894;28;20202;-77
2021/03/13 11:44:02;;;;;;;1.75;0.70;;;;;;;;;;5069071;28;20207;-77
2021/03/13 11:46:28;;;;;;;1.13;1.00;;;;;;;;;;5069316;28;20219;-76
2021/03/13 11:49:00;;;;;;;1.65;0.95;;;;;;;;;;5063742;28;20596;-77
2021/03/13 11:54:24;;;;;;;1.50;1.00;;;;;;;;;;5051609;28;20545;-77
2021/03/13 11:56:59;;;;;;;1.65;1.15;;;;;;;;;;5061521;28;20239;-77
2021/03/13 11:59:26;;;;;;;2.25;1.55;;;;;;;;;;5044729;28;20216;-77
2021/03/13 12:01:52;;;;;;;2.15;1.17;;;;;;;;;;5041778;28;20208;-77
2021/03/13 12:04:18;;;;;;;0.90;0.70;;;;;;;;;;5041492;28;20224;-76
2021/03/13 12:06:44;;;;;;;2.22;0.68;;;;;;;;;;5056516;28;20239;-76
2021/03/13 12:09:10;;;;;;;2.20;0.85;;;;;;;;;;5058773;28;20209;-75
2021/03/13 12:11:36;;;;;;;1.65;0.80;;;;;;;;;;5058587;28;20702;-76
2021/03/13 12:14:03;;;;;;;1.65;0.80;;;;;;;;;;5060073;28;20208;-77
2021/03/13 12:16:30;;;;;;;7.03;2.03;;;;;;;;;;5059228;28;20197;-77
2021/03/13 12:18:56;;;;;;;6.07;2.42;;;;;;;;;;5061543;28;20348;-76
2021/03/13 12:21:22;;;;;;;2.97;1.63;;;;;;;;;;5063942;28;20229;-78
2021/03/13 12:23:48;;;;;;;3.83;2.85;;;;;;;;;;5065255;28;20201;-78
2021/03/13 12:26:14;;;;;;;2.88;1.27;;;;;;;;;;5068175;28;20537;-77
2021/03/13 12:28:40;;;;;;;1.95;1.70;;;;;;;;;;5067188;28;20223;-78
2021/03/13 12:31:06;;;;;;;1.30;0.90;;;;;;;;;;5059509;28;20745;-77
2021/03/13 12:33:33;;;;;;;2.97;1.10;;;;;;;;;;5055562;28;20471;-77
2021/03/13 12:35:59;;;;;;;2.90;0.82;;;;;;;;;;5053400;28;20237;-78
2021/03/13 12:38:25;;;;;;;4.25;1.02;;;;;;;;;;5053974;28;20258;-77
2021/03/13 12:40:53;;;;;;;5.25;1.23;;;;;;;;;;5053765;28;20187;-77
2021/03/13 12:43:19;;;;;;;3.03;1.45;;;;;;;;;;5053663;28;20195;-77
2021/03/13 12:45:45;;;;;;;1.10;0.80;;;;;;;;;;5053813;28;20560;-77
2021/03/13 12:48:11;;;;;;;1.35;0.90;;;;;;;;;;5054037;28;20207;-75
2021/03/13 12:50:38;;;;;;;1.20;0.98;;;;;;;;;;5054235;28;20221;-77
2021/03/13 12:53:05;;;;;;;1.45;0.70;;;;;;;;;;5058194;28;20624;-75
2021/03/13 12:55:31;;;;;;;2.67;0.88;;;;;;;;;;5056862;28;20232;-77
2021/03/13 12:57:57;;;;;;;4.03;1.67;;;;;;;;;;5057940;28;20216;-79
2021/03/13 13:00:23;;;;;;;7.95;2.63;;;;;;;;;;5057635;28;20277;-77
2021/03/13 13:02:49;;;;;;;3.20;1.45;;;;;;;;;;5057697;28;20255;-77
2021/03/13 13:05:15;;;;;;;2.03;1.30;;;;;;;;;;5057560;28;20230;-77
2021/03/13 13:07:46;;;;;;;1.42;0.80;;;;;;;;;;5056905;28;20233;-77
2021/03/13 13:10:13;;;;;;;1.10;0.80;;;;;;;;;;5056316;28;20559;-78
2021/03/13 13:12:39;;;;;;;1.02;0.70;;;;;;;;;;5057729;28;20212;-78
2021/03/13 13:15:06;;;;;;;2.30;2.05;;;;;;;;;;5057174;28;20251;-78
2021/03/13 13:17:32;;;;;;;0.82;0.80;;;;;;;;;;5057871;28;20644;-77
2021/03/13 13:20:00;;;;;;;1.10;0.80;;;;;;;;;;5056601;28;20197;-76
2021/03/13 13:22:26;;;;;;;0.80;0.70;;;;;;;;;;5057731;28;20194;-76
2021/03/13 13:24:53;;;;;;;1.13;1.02;;;;;;;;;;5056798;28;20201;-75
2021/03/13 13:27:19;;;;;;;0.70;0.60;;;;;;;;;;5057689;28;20206;-75
2021/03/13 13:29:45;;;;;;;0.70;0.60;;;;;;;;;;5056606;28;20208;-76
2021/03/13 13:32:11;;;;;;;0.80;0.70;;;;;;;;;;5049250;28;20232;-74
2021/03/13 13:34:37;;;;;;;1.85;1.00;;;;;;;;;;5056542;28;20201;-75
2021/03/13 13:37:03;;;;;;;1.90;0.90;;;;;;;;;;5056475;28;20225;-75
2021/03/13 13:39:29;;;;;;;13.57;7.80;;;;;;;;;;5056764;28;20659;-75
2021/03/13 13:41:56;;;;;;;1.77;1.02;;;;;;;;;;5056634;28;20185;-73
2021/03/13 13:44:23;;;;;;;0.80;0.75;;;;;;;;;;5056791;28;20266;-75
2021/03/13 13:46:49;;;;;;;7.93;0.80;;;;;;;;;;5056434;28;20205;-76
2021/03/13 13:49:15;;;;;;;2.38;1.17;;;;;;;;;;5056643;28;20209;-76
2021/03/13 13:51:41;;;;;;;2.13;0.93;;;;;;;;;;5056725;28;20221;-75
2021/03/13 13:54:07;;;;;;;1.10;0.80;;;;;;;;;;5055880;28;20203;-77
2021/03/13 13:56:33;;;;;;;5.38;1.00;;;;;;;;;;5056430;28;20268;-75
2021/03/13 13:59:02;;;;;;;2.60;1.02;;;;;;;;;;5055742;28;20649;-75
2021/03/13 14:01:28;;;;;;;1.85;1.30;;;;;;;;;;5056172;28;20219;-75
2021/03/13 14:03:54;;;;;;;0.93;0.75;;;;;;;;;;5055591;28;20661;-75
2021/03/13 14:06:20;;;;;;;6.63;1.65;;;;;;;;;;5056260;28;20237;-76
2021/03/13 14:08:46;;;;;;;3.45;1.30;;;;;;;;;;5055861;28;20251;-75
2021/03/13 14:11:12;;;;;;;5.88;1.30;;;;;;;;;;5055970;28;20607;-75
2021/03/13 14:13:38;;;;;;;1.92;1.17;;;;;;;;;;5055853;28;20226;-74
2021/03/13 14:16:05;;;;;;;2.08;1.02;;;;;;;;;;5055436;28;20548;-73
2021/03/13 14:18:31;;;;;;;1.10;0.95;;;;;;;;;;5055504;28;20629;-73
2021/03/13 14:20:57;;;;;;;4.95;1.67;;;;;;;;;;5055361;28;20199;-75
2021/03/13 14:23:23;;;;;;;1.67;1.58;;;;;;;;;;5055286;28;20555;-74
2021/03/13 14:25:50;;;;;;;1.35;0.95;;;;;;;;;;5054965;28;20206;-73
2021/03/13 14:28:16;;;;;;;2.38;1.02;;;;;;;;;;5055272;28;20526;-73
2021/03/13 14:30:42;;;;;;;0.80;0.70;;;;;;;;;;5054809;28;20314;-75
2021/03/13 14:33:09;;;;;;;4.75;0.70;;;;;;;;;;5055461;28;20211;-72
2021/03/13 14:35:35;;;;;;;0.90;0.77;;;;;;;;;;5054831;28;20263;-75
2021/03/13 14:38:01;;;;;;;2.75;1.08;;;;;;;;;;5055099;28;20208;-75
2021/03/13 14:40:29;;;;;;;1.58;0.80;;;;;;;;;;5054349;28;20592;-75
2021/03/13 14:42:55;;;;;;;1.10;0.90;;;;;;;;;;5054640;28;20282;-74
2021/03/13 14:45:21;;;;;;;3.13;1.00;;;;;;;;;;5054569;28;20211;-75
2021/03/13 14:47:48;;;;;;;1.90;1.20;;;;;;;;;;5054683;28;20209;-75